createdAt,value
2023-06-28T00:00:14.672Z,17.30
2023-06-28T00:02:47.312Z,17.30
2023-06-28T00:05:16.013Z,17.30
2023-06-28T00:07:44.582Z,17.30
2023-06-28T00:10:12.839Z,17.30
2023-06-28T00:12:43.372Z,17.30
2023-06-28T00:15:12.800Z,17.20
2023-06-28T00:17:41.221Z,17.20
2023-06-28T00:20:12.199Z,17.20
2023-06-28T00:22:41.261Z,17.10
2023-06-28T00:25:10.940Z,17.10
2023-06-28T00:27:39.257Z,17.10
2023-06-28T00:30:12.825Z,17.10
2023-06-28T00:32:41.543Z,17.00
2023-06-28T00:35:10.453Z,16.90
2023-06-28T00:37:40.268Z,16.90
2023-06-28T00:40:11.320Z,16.90
2023-06-28T00:42:39.977Z,16.80
2023-06-28T00:45:15.546Z,16.70
2023-06-28T00:47:46.057Z,16.60
2023-06-28T00:50:15.014Z,16.60
2023-06-28T00:52:44.866Z,16.70
2023-06-28T00:55:14.660Z,16.70
2023-06-28T00:57:43.506Z,16.70
2023-06-28T01:00:15.523Z,16.60
2023-06-28T01:02:46.029Z,16.50
2023-06-28T01:05:17.275Z,16.50
2023-06-28T01:07:48.441Z,16.50
2023-06-28T01:10:19.823Z,16.40
2023-06-28T01:12:50.117Z,16.40
2023-06-28T01:15:20.157Z,16.40
2023-06-28T01:17:49.002Z,16.20
2023-06-28T01:20:18.194Z,16.20
2023-06-28T01:22:55.305Z,16.20
2023-06-28T01:25:24.249Z,16.20
2023-06-28T01:27:53.801Z,16.10
2023-06-28T01:30:39.172Z,16.10
2023-06-28T01:33:08.526Z,16.10
2023-06-28T01:35:38.209Z,16.00
2023-06-28T01:38:09.051Z,16.00
2023-06-28T01:40:42.172Z,15.90
2023-06-28T01:43:11.314Z,15.90
2023-06-28T01:45:40.027Z,15.90
2023-06-28T01:48:08.574Z,15.80
2023-06-28T01:50:37.576Z,15.80
2023-06-28T01:53:09.572Z,15.80
2023-06-28T01:55:38.016Z,15.80
2023-06-28T01:58:08.259Z,15.80
2023-06-28T02:00:36.552Z,15.80
2023-06-28T02:03:05.956Z,15.80
2023-06-28T02:05:35.874Z,15.80
2023-06-28T02:08:08.740Z,15.80
2023-06-28T02:10:37.571Z,15.80
2023-06-28T02:13:08.676Z,15.80
2023-06-28T02:15:37.138Z,15.80
2023-06-28T02:18:07.376Z,15.70
2023-06-28T02:20:35.793Z,15.70
2023-06-28T02:23:05.713Z,15.70
2023-06-28T02:25:35.686Z,15.70
2023-06-28T02:28:04.222Z,15.70
2023-06-28T02:30:32.700Z,15.70
2023-06-28T02:33:01.007Z,15.70
2023-06-28T02:35:29.518Z,15.70
2023-06-28T02:37:58.272Z,15.70
2023-06-28T02:40:27.138Z,15.70
2023-06-28T02:42:59.373Z,15.70
2023-06-28T02:45:27.737Z,15.80
2023-06-28T02:47:56.718Z,15.80
2023-06-28T02:50:25.720Z,15.80
2023-06-28T02:53:13.292Z,15.70
2023-06-28T02:55:46.233Z,15.70
2023-06-28T02:58:19.226Z,15.70
2023-06-28T03:00:51.434Z,15.70
2023-06-28T03:03:20.835Z,15.60
2023-06-28T03:05:49.862Z,15.60
2023-06-28T03:08:18.366Z,15.60
2023-06-28T03:10:47.085Z,15.60
2023-06-28T03:13:15.843Z,15.60
2023-06-28T03:15:45.792Z,15.50
2023-06-28T03:18:18.579Z,15.50
2023-06-28T03:20:47.734Z,15.60
2023-06-28T03:23:16.631Z,15.60
2023-06-28T03:25:45.617Z,15.60
2023-06-28T03:28:14.579Z,15.60
2023-06-28T03:30:44.090Z,15.60
2023-06-28T03:33:15.015Z,15.60
2023-06-28T03:35:44.397Z,15.70
2023-06-28T03:38:13.099Z,15.70
2023-06-28T03:40:44.644Z,15.70
2023-06-28T03:43:13.637Z,15.70
2023-06-28T03:45:42.245Z,15.70
2023-06-28T03:48:12.760Z,15.70
2023-06-28T03:50:43.973Z,15.70
2023-06-28T03:53:13.965Z,15.60
2023-06-28T03:55:42.541Z,15.60
2023-06-28T03:58:11.312Z,15.70
2023-06-28T04:00:40.203Z,15.60
2023-06-28T04:03:09.283Z,15.60
2023-06-28T04:05:38.189Z,15.60
2023-06-28T04:08:10.115Z,15.60
2023-06-28T04:10:39.567Z,15.60
2023-06-28T04:13:08.759Z,15.60
2023-06-28T04:15:37.611Z,15.60
2023-06-28T04:18:06.223Z,15.60
2023-06-28T04:20:35.038Z,15.60
2023-06-28T04:23:04.575Z,15.60
2023-06-28T04:25:35.202Z,15.70
2023-06-28T04:28:04.646Z,15.70
2023-06-28T04:30:33.719Z,15.70
2023-06-28T04:33:06.462Z,15.70
2023-06-28T04:35:35.811Z,15.80
2023-06-28T04:38:05.994Z,15.80
2023-06-28T04:40:36.791Z,15.80
2023-06-28T04:43:11.570Z,15.80
2023-06-28T04:45:40.165Z,15.80
2023-06-28T04:48:09.521Z,15.80
2023-06-28T04:50:40.007Z,15.80
2023-06-28T04:53:08.872Z,15.90
2023-06-28T04:55:38.974Z,15.90
2023-06-28T04:58:08.432Z,15.90
2023-06-28T05:00:36.973Z,15.90
2023-06-28T05:03:06.520Z,15.90
2023-06-28T05:05:35.293Z,16.00
2023-06-28T05:08:05.851Z,16.00
2023-06-28T05:10:34.320Z,16.00
2023-06-28T05:13:04.384Z,16.10
2023-06-28T05:15:34.051Z,16.20
2023-06-28T05:18:02.563Z,16.20
2023-06-28T05:20:34.364Z,16.20
2023-06-28T05:23:14.996Z,16.20
2023-06-28T05:25:46.296Z,16.20
2023-06-28T05:28:17.538Z,16.30
2023-06-28T05:30:48.232Z,16.30
2023-06-28T05:33:17.740Z,16.30
2023-06-28T05:35:46.221Z,16.30
2023-06-28T05:38:14.572Z,16.30
2023-06-28T05:40:43.767Z,16.30
2023-06-28T05:43:13.152Z,16.40
2023-06-28T05:45:44.170Z,16.50
2023-06-28T05:48:12.776Z,16.50
2023-06-28T05:50:45.892Z,16.60
2023-06-28T05:53:18.677Z,16.70
2023-06-28T05:55:48.136Z,16.70
2023-06-28T05:58:16.413Z,16.80
2023-06-28T06:00:46.978Z,16.80
2023-06-28T06:03:15.615Z,16.90
2023-06-28T06:05:44.649Z,17.00
2023-06-28T06:08:13.552Z,17.00
2023-06-28T06:10:42.264Z,17.10
2023-06-28T06:13:12.191Z,17.10
2023-06-28T06:15:40.737Z,17.20
2023-06-28T06:18:11.190Z,17.20
2023-06-28T06:20:41.286Z,17.30
2023-06-28T06:23:10.312Z,17.40
2023-06-28T06:25:38.892Z,17.40
2023-06-28T06:28:07.773Z,17.50
2023-06-28T06:30:36.515Z,17.50
2023-06-28T06:33:05.398Z,17.50
2023-06-28T06:35:35.507Z,17.60
2023-06-28T06:38:04.084Z,17.60
2023-06-28T06:40:33.061Z,17.70
2023-06-28T06:43:01.616Z,17.70
2023-06-28T06:45:31.272Z,17.80
2023-06-28T06:47:59.700Z,17.80
2023-06-28T06:50:29.321Z,17.90
2023-06-28T06:52:59.330Z,17.90
2023-06-28T06:55:27.833Z,18.00
2023-06-28T06:57:56.602Z,18.10
2023-06-28T07:00:25.116Z,18.10
2023-06-28T07:02:53.944Z,18.20
2023-06-28T07:05:24.984Z,18.30
2023-06-28T07:07:55.747Z,18.30
2023-06-28T07:10:26.038Z,18.30
2023-06-28T07:12:54.303Z,18.30
2023-06-28T07:15:22.697Z,18.40
2023-06-28T07:17:52.243Z,18.40
2023-06-28T07:20:21.343Z,18.50
2023-06-28T07:22:49.896Z,18.50
2023-06-28T07:25:18.190Z,18.60
2023-06-28T07:27:49.115Z,18.60
2023-06-28T07:30:18.424Z,18.70
2023-06-28T07:32:47.758Z,18.70
2023-06-28T07:35:16.196Z,18.80
2023-06-28T07:37:45.916Z,18.80
2023-06-28T07:40:15.907Z,18.80
2023-06-28T07:42:44.880Z,18.90
2023-06-28T07:45:15.853Z,18.90
2023-06-28T07:47:44.694Z,18.90
2023-06-28T07:50:13.714Z,18.90
2023-06-28T07:52:42.301Z,18.90
2023-06-28T07:55:13.110Z,18.90
2023-06-28T07:57:42.424Z,18.90
2023-06-28T08:00:12.648Z,18.90
2023-06-28T08:02:42.377Z,19.00
2023-06-28T08:05:11.493Z,19.10
2023-06-28T08:07:40.668Z,19.10
2023-06-28T08:10:09.672Z,19.20
2023-06-28T08:12:37.964Z,19.20
2023-06-28T08:15:06.971Z,19.20
2023-06-28T08:17:35.858Z,19.20
2023-06-28T08:20:07.131Z,19.20
2023-06-28T08:22:36.354Z,19.30
2023-06-28T08:25:05.607Z,19.30
2023-06-28T08:27:34.436Z,19.20
2023-06-28T08:30:02.981Z,19.20
2023-06-28T08:32:31.969Z,19.20
2023-06-28T08:35:00.749Z,19.20
2023-06-28T08:37:33.556Z,19.20
2023-06-28T08:40:02.556Z,19.20
2023-06-28T08:42:32.646Z,19.20
2023-06-28T08:45:04.059Z,19.20
2023-06-28T08:47:35.359Z,19.20
2023-06-28T08:50:05.585Z,19.10
2023-06-28T08:52:37.748Z,19.30
2023-06-28T08:55:07.778Z,19.40
2023-06-28T08:57:37.099Z,19.60
2023-06-28T09:00:06.818Z,19.80
2023-06-28T09:02:37.846Z,19.80
2023-06-28T09:05:10.802Z,20.00
2023-06-28T09:07:42.642Z,20.00
2023-06-28T09:10:12.269Z,20.00
2023-06-28T09:12:41.040Z,20.00
2023-06-28T09:15:10.730Z,20.10
2023-06-28T09:17:39.378Z,20.00
2023-06-28T09:20:17.892Z,20.10
2023-06-28T09:22:56.251Z,20.10
2023-06-28T09:25:25.545Z,20.10
2023-06-28T09:27:54.876Z,20.20
2023-06-28T09:30:42.107Z,20.40
2023-06-28T09:33:10.932Z,20.50
2023-06-28T09:35:40.050Z,20.70
2023-06-28T09:38:11.279Z,20.90
2023-06-28T09:40:39.756Z,21.00
2023-06-28T09:43:08.341Z,21.10
2023-06-28T09:45:38.233Z,21.20
2023-06-28T09:48:08.072Z,21.50
2023-06-28T09:50:45.440Z,21.60
2023-06-28T09:53:18.451Z,21.60
2023-06-28T09:55:50.870Z,21.60
2023-06-28T09:58:22.220Z,21.40
2023-06-28T10:00:51.934Z,21.30
2023-06-28T10:03:24.241Z,21.40
2023-06-28T10:05:59.257Z,21.60
2023-06-28T10:08:30.762Z,21.80
2023-06-28T10:10:59.275Z,22.20
2023-06-28T10:13:30.638Z,22.50
2023-06-28T10:16:07.716Z,22.70
2023-06-28T10:18:36.752Z,23.00
2023-06-28T10:21:07.938Z,23.20
2023-06-28T10:23:40.362Z,23.30
2023-06-28T10:26:11.139Z,23.40
2023-06-28T10:28:41.610Z,23.40
2023-06-28T10:31:10.542Z,23.10
2023-06-28T10:33:39.348Z,23.10
2023-06-28T10:36:08.147Z,23.00
2023-06-28T10:38:43.273Z,23.00
2023-06-28T10:41:15.944Z,22.80
2023-06-28T10:43:45.134Z,22.90
2023-06-28T10:46:24.231Z,23.00
2023-06-28T10:48:55.841Z,23.30
2023-06-28T10:51:28.131Z,23.60
2023-06-28T10:54:09.693Z,23.70
2023-06-28T10:56:39.775Z,23.80
2023-06-28T10:59:09.934Z,24.00
2023-06-28T11:01:41.849Z,23.90
2023-06-28T11:04:15.250Z,24.10
2023-06-28T11:06:43.903Z,24.20
2023-06-28T11:09:16.130Z,24.40
2023-06-28T11:11:56.708Z,24.70
2023-06-28T11:14:27.682Z,24.60
2023-06-28T11:17:02.516Z,24.70
2023-06-28T11:19:31.432Z,25.10
2023-06-28T11:22:00.610Z,25.60
2023-06-28T11:24:46.226Z,26.00
2023-06-28T11:27:17.002Z,26.30
2023-06-28T11:29:57.238Z,26.40
2023-06-28T11:32:27.609Z,25.90
2023-06-28T11:34:57.085Z,25.90
2023-06-28T11:37:26.139Z,26.20
2023-06-28T11:39:57.715Z,26.40
2023-06-28T11:42:26.020Z,26.40
2023-06-28T11:44:55.738Z,26.50
2023-06-28T11:47:28.435Z,26.60
2023-06-28T11:49:57.856Z,26.50
2023-06-28T11:52:26.431Z,26.40
2023-06-28T11:54:57.066Z,26.20
2023-06-28T11:57:25.996Z,26.30
2023-06-28T11:59:55.337Z,26.40
2023-06-28T12:02:24.374Z,26.70
2023-06-28T12:05:01.831Z,26.90
2023-06-28T12:07:31.300Z,27.20
2023-06-28T12:10:01.330Z,27.50
2023-06-28T12:12:39.082Z,27.60
2023-06-28T12:15:09.054Z,27.80
2023-06-28T12:17:45.524Z,27.90
2023-06-28T12:20:14.767Z,27.70
2023-06-28T12:22:46.003Z,27.80
2023-06-28T12:25:16.055Z,28.00
2023-06-28T12:27:44.735Z,28.10
2023-06-28T12:30:14.652Z,28.30
2023-06-28T12:32:47.657Z,28.30
2023-06-28T12:35:23.716Z,28.30
2023-06-28T12:37:55.596Z,28.60
2023-06-28T12:40:30.127Z,28.50
2023-06-28T12:43:15.053Z,28.70
2023-06-28T12:45:48.783Z,28.80
2023-06-28T12:48:17.648Z,28.00
2023-06-28T12:50:46.450Z,27.40
2023-06-28T12:53:17.159Z,27.20
2023-06-28T12:55:47.145Z,27.40
2023-06-28T12:58:15.798Z,27.60
2023-06-28T13:00:46.552Z,27.60
2023-06-28T13:03:22.883Z,27.80
2023-06-28T13:05:52.071Z,28.10
2023-06-28T13:08:21.019Z,28.20
2023-06-28T13:10:52.625Z,28.10
2023-06-28T13:13:21.184Z,28.50
2023-06-28T13:15:49.515Z,29.00
2023-06-28T13:18:18.605Z,29.50
2023-06-28T13:20:47.118Z,29.80
2023-06-28T13:23:15.630Z,30.50
2023-06-28T13:25:44.790Z,31.10
2023-06-28T13:28:14.767Z,31.00
2023-06-28T13:30:43.235Z,31.50
2023-06-28T13:33:12.260Z,31.50
2023-06-28T13:35:40.562Z,31.30
2023-06-28T13:38:09.140Z,31.40
2023-06-28T13:40:38.306Z,31.60
2023-06-28T13:43:08.519Z,32.00
2023-06-28T13:45:39.820Z,32.30
2023-06-28T13:48:09.145Z,32.40
2023-06-28T13:50:37.655Z,32.40
2023-06-28T13:53:07.305Z,32.50
2023-06-28T13:55:35.646Z,32.80
2023-06-28T13:58:04.200Z,32.90
2023-06-28T14:00:33.079Z,32.70
2023-06-28T14:03:03.310Z,32.20
2023-06-28T14:05:31.967Z,31.90
2023-06-28T14:08:00.368Z,31.50
2023-06-28T14:10:32.153Z,31.00
2023-06-28T14:13:00.861Z,30.40
2023-06-28T14:15:31.806Z,30.10
2023-06-28T14:18:02.501Z,29.80
2023-06-28T14:20:33.402Z,29.70
2023-06-28T14:23:01.902Z,30.10
2023-06-28T14:25:30.207Z,30.40
2023-06-28T14:27:59.292Z,30.70
2023-06-28T14:30:27.945Z,30.70
2023-06-28T14:32:57.915Z,31.40
2023-06-28T14:35:27.900Z,32.00
2023-06-28T14:38:04.066Z,32.10
2023-06-28T14:40:33.718Z,32.00
2023-06-28T14:43:02.259Z,32.10
2023-06-28T14:45:31.673Z,32.00
2023-06-28T14:48:00.455Z,31.50
2023-06-28T14:50:29.783Z,31.00
2023-06-28T14:52:59.586Z,31.20
2023-06-28T14:55:27.885Z,31.80
2023-06-28T14:57:56.906Z,32.10
2023-06-28T15:00:25.482Z,32.10
2023-06-28T15:02:54.048Z,31.80
2023-06-28T15:05:22.903Z,31.40
2023-06-28T15:07:51.720Z,31.00
2023-06-28T15:10:25.998Z,29.80
2023-06-28T15:12:54.250Z,29.10
2023-06-28T15:15:23.926Z,28.40
2023-06-28T15:17:52.831Z,28.00
2023-06-28T15:20:30.449Z,27.90
2023-06-28T15:23:08.466Z,28.20
2023-06-28T15:25:38.730Z,28.30
2023-06-28T15:28:10.589Z,28.40
2023-06-28T15:30:40.471Z,28.50
2023-06-28T15:33:13.279Z,28.40
2023-06-28T15:35:43.904Z,28.50
2023-06-28T15:38:13.383Z,28.40
2023-06-28T15:40:44.000Z,28.30
2023-06-28T15:43:12.488Z,28.30
2023-06-28T15:45:41.028Z,28.20
2023-06-28T15:48:10.243Z,28.20
2023-06-28T15:50:39.787Z,28.20
2023-06-28T15:53:08.496Z,28.20
2023-06-28T15:55:37.187Z,28.00
2023-06-28T15:58:07.852Z,28.00
2023-06-28T16:00:38.221Z,27.90
2023-06-28T16:03:07.320Z,27.80
2023-06-28T16:05:36.104Z,27.80
2023-06-28T16:08:04.896Z,27.70
2023-06-28T16:10:33.159Z,27.60
2023-06-28T16:13:04.777Z,27.50
2023-06-28T16:15:35.790Z,27.30
2023-06-28T16:18:05.102Z,27.20
2023-06-28T16:20:33.415Z,27.00
2023-06-28T16:23:02.270Z,26.90
2023-06-28T16:25:32.829Z,26.80
2023-06-28T16:28:01.649Z,26.70
2023-06-28T16:30:30.215Z,26.70
2023-06-28T16:33:00.585Z,26.80
2023-06-28T16:35:29.149Z,26.60
2023-06-28T16:37:57.733Z,26.60
2023-06-28T16:40:28.313Z,26.50
2023-06-28T16:42:58.203Z,26.30
2023-06-28T16:45:26.778Z,26.30
2023-06-28T16:47:56.568Z,26.30
2023-06-28T16:50:27.026Z,26.40
2023-06-28T16:52:55.862Z,26.30
2023-06-28T16:55:24.606Z,26.30
2023-06-28T16:57:56.605Z,26.20
2023-06-28T17:00:25.954Z,26.10
2023-06-28T17:02:55.485Z,26.00
2023-06-28T17:05:25.355Z,26.00
2023-06-28T17:07:54.722Z,26.00
2023-06-28T17:10:24.650Z,25.80
2023-06-28T17:12:53.280Z,25.60
2023-06-28T17:15:22.385Z,25.40
2023-06-28T17:17:50.723Z,25.30
2023-06-28T17:20:19.497Z,25.20
2023-06-28T17:22:49.631Z,25.10
2023-06-28T17:25:19.499Z,25.00
2023-06-28T17:27:49.573Z,24.90
2023-06-28T17:30:18.519Z,24.90
2023-06-28T17:32:50.035Z,24.80
2023-06-28T17:35:19.189Z,24.70
2023-06-28T17:37:49.581Z,24.60
2023-06-28T17:40:18.006Z,24.60
2023-06-28T17:42:46.843Z,24.50
2023-06-28T17:45:15.900Z,24.40
2023-06-28T17:47:44.702Z,24.40
2023-06-28T17:50:13.621Z,24.50
2023-06-28T17:52:42.781Z,24.40
2023-06-28T17:55:12.828Z,24.40
2023-06-28T17:57:41.483Z,24.40
2023-06-28T18:00:11.178Z,24.40
2023-06-28T18:02:44.199Z,24.40
2023-06-28T18:05:14.007Z,24.40
2023-06-28T18:07:43.054Z,24.40
2023-06-28T18:10:13.734Z,24.40
2023-06-28T18:12:42.272Z,24.40
2023-06-28T18:15:12.068Z,24.20
2023-06-28T18:17:40.775Z,24.10
2023-06-28T18:20:10.319Z,24.10
2023-06-28T18:22:38.901Z,24.10
2023-06-28T18:25:08.192Z,24.10
2023-06-28T18:27:38.533Z,23.90
2023-06-28T18:30:08.616Z,23.90
2023-06-28T18:32:36.926Z,23.90
2023-06-28T18:35:07.966Z,23.80
2023-06-28T18:37:36.609Z,23.70
2023-06-28T18:40:05.737Z,23.60
2023-06-28T18:42:35.794Z,23.40
2023-06-28T18:45:07.575Z,23.30
2023-06-28T18:47:36.865Z,23.20
2023-06-28T18:50:05.753Z,23.00
2023-06-28T18:52:34.523Z,23.00
2023-06-28T18:55:03.274Z,22.90
2023-06-28T18:57:32.027Z,22.80
2023-06-28T19:00:02.265Z,22.80
2023-06-28T19:02:33.165Z,22.70
2023-06-28T19:05:02.450Z,22.70
2023-06-28T19:07:31.731Z,22.60
2023-06-28T19:10:02.157Z,22.50
2023-06-28T19:12:30.787Z,22.40
2023-06-28T19:15:00.245Z,22.40
2023-06-28T19:17:31.680Z,22.40
2023-06-28T19:20:01.754Z,22.40
2023-06-28T19:22:30.120Z,22.30
2023-06-28T19:24:58.291Z,22.20
2023-06-28T19:27:27.148Z,22.10
2023-06-28T19:29:55.528Z,22.00
2023-06-28T19:32:23.881Z,22.00
2023-06-28T19:34:53.899Z,21.90
2023-06-28T19:37:24.175Z,21.80
2023-06-28T19:39:54.349Z,21.70
2023-06-28T19:42:24.898Z,21.70
2023-06-28T19:44:53.613Z,21.70
2023-06-28T19:47:22.021Z,21.60
2023-06-28T19:49:51.085Z,21.60
2023-06-28T19:52:19.581Z,21.50
2023-06-28T19:54:50.716Z,21.40
2023-06-28T19:57:19.131Z,21.40
2023-06-28T19:59:47.580Z,21.30
2023-06-28T20:02:17.438Z,21.20
2023-06-28T20:04:45.947Z,21.00
2023-06-28T20:07:14.516Z,20.90
2023-06-28T20:09:43.197Z,20.70
2023-06-28T20:12:13.683Z,20.60
2023-06-28T20:14:42.212Z,20.50
2023-06-28T20:17:10.664Z,20.30
2023-06-28T20:19:38.950Z,20.10
2023-06-28T20:22:08.310Z,20.00
2023-06-28T20:24:36.577Z,19.90
2023-06-28T20:27:05.823Z,19.80
2023-06-28T20:29:36.146Z,19.70
2023-06-28T20:32:05.060Z,19.60
2023-06-28T20:34:34.401Z,19.50
2023-06-28T20:37:03.631Z,19.40
2023-06-28T20:39:32.336Z,19.40
2023-06-28T20:42:00.972Z,19.30
2023-06-28T20:44:36.341Z,19.20
2023-06-28T20:47:07.447Z,19.10
2023-06-28T20:49:35.819Z,19.00
2023-06-28T20:52:05.157Z,18.90
2023-06-28T20:54:33.600Z,18.90
2023-06-28T20:57:01.891Z,18.90
2023-06-28T20:59:30.389Z,18.90
2023-06-28T21:01:58.718Z,18.90
2023-06-28T21:04:29.605Z,18.80
2023-06-28T21:06:59.498Z,18.80
2023-06-28T21:09:28.475Z,18.70
2023-06-28T21:11:57.043Z,18.60
2023-06-28T21:14:25.824Z,18.50
2023-06-28T21:16:54.581Z,18.40
2023-06-28T21:19:24.249Z,18.30
2023-06-28T21:21:54.450Z,18.30
2023-06-28T21:24:22.882Z,18.40
2023-06-28T21:26:51.651Z,18.30
2023-06-28T21:29:22.386Z,18.00
2023-06-28T21:31:51.089Z,17.90
2023-06-28T21:34:19.500Z,17.70
2023-06-28T21:36:48.497Z,17.70
2023-06-28T21:39:18.337Z,17.70
2023-06-28T21:41:47.265Z,17.80
2023-06-28T21:44:15.997Z,17.70
2023-06-28T21:46:44.242Z,17.60
2023-06-28T21:49:12.578Z,17.50
2023-06-28T21:51:40.883Z,17.40
2023-06-28T21:54:09.912Z,17.40
2023-06-28T21:56:39.625Z,17.50
2023-06-28T21:59:08.183Z,17.50
2023-06-28T22:01:36.778Z,17.50
2023-06-28T22:04:05.458Z,17.40
2023-06-28T22:06:35.297Z,17.30
2023-06-28T22:09:03.949Z,17.20
2023-06-28T22:11:32.323Z,17.10
2023-06-28T22:14:05.542Z,17.00
2023-06-28T22:16:36.297Z,17.00
2023-06-28T22:19:04.634Z,16.90
2023-06-28T22:21:33.244Z,16.90
2023-06-28T22:24:01.813Z,16.90
2023-06-28T22:26:30.191Z,16.90
2023-06-28T22:28:58.515Z,16.90
2023-06-28T22:31:28.842Z,16.90
2023-06-28T22:33:57.776Z,16.90
2023-06-28T22:36:27.745Z,16.90
2023-06-28T22:38:58.754Z,16.90
2023-06-28T22:41:27.522Z,16.90
2023-06-28T22:43:56.099Z,16.90
2023-06-28T22:46:26.847Z,16.90
2023-06-28T22:48:56.691Z,16.90
2023-06-28T22:51:26.672Z,16.90
2023-06-28T22:53:55.890Z,16.80
2023-06-28T22:56:25.711Z,16.80
2023-06-28T22:58:54.446Z,16.80
2023-06-28T23:01:23.103Z,16.80
2023-06-28T23:03:51.638Z,16.80
2023-06-28T23:06:21.540Z,16.80
2023-06-28T23:08:50.869Z,16.70
2023-06-28T23:11:19.725Z,16.70
2023-06-28T23:13:49.137Z,16.70
2023-06-28T23:16:17.348Z,16.70
2023-06-28T23:18:52.597Z,16.70
2023-06-28T23:21:23.272Z,16.70
2023-06-28T23:23:53.756Z,16.60
2023-06-28T23:26:24.881Z,16.60
2023-06-28T23:28:53.560Z,16.60
2023-06-28T23:31:22.611Z,16.50
2023-06-28T23:33:51.617Z,16.50
2023-06-28T23:36:21.434Z,16.40
2023-06-28T23:38:54.131Z,16.40
2023-06-28T23:41:23.574Z,16.40
2023-06-28T23:43:53.261Z,16.50
2023-06-28T23:46:22.932Z,16.50
2023-06-28T23:48:51.194Z,16.40
2023-06-28T23:51:19.455Z,16.40
2023-06-28T23:53:52.308Z,16.40
2023-06-28T23:56:21.499Z,16.40
2023-06-28T23:58:49.924Z,16.30
